createdAt,value
2024-03-11T00:00:17.090Z,18.00
2024-03-11T00:02:51.343Z,15.90
2024-03-11T00:05:24.375Z,18.07
2024-03-11T00:07:58.479Z,17.60
2024-03-11T00:10:35.521Z,18.70
2024-03-11T00:13:12.215Z,16.93
2024-03-11T00:15:48.770Z,16.97
2024-03-11T00:18:21.973Z,17.83
2024-03-11T00:20:54.918Z,18.73
2024-03-11T00:23:28.673Z,15.87
2024-03-11T00:26:03.778Z,19.50
2024-03-11T00:28:38.364Z,19.20
2024-03-11T00:31:13.269Z,20.17
2024-03-11T00:33:46.525Z,16.10
2024-03-11T00:36:19.752Z,20.73
2024-03-11T00:38:54.335Z,17.90
2024-03-11T00:41:29.290Z,17.10
2024-03-11T00:44:02.618Z,17.43
2024-03-11T00:46:36.854Z,20.23
2024-03-11T00:49:10.973Z,17.13
2024-03-11T00:51:44.048Z,17.00
2024-03-11T00:54:17.284Z,16.93
2024-03-11T00:56:52.321Z,16.60
2024-03-11T00:59:25.763Z,16.57
2024-03-11T01:01:59.551Z,19.03
2024-03-11T01:04:32.778Z,21.03
2024-03-11T01:07:13.287Z,17.27
2024-03-11T01:09:54.105Z,18.43
2024-03-11T01:12:28.818Z,16.50
2024-03-11T01:15:03.100Z,17.00
2024-03-11T01:17:38.668Z,19.87
2024-03-11T01:20:14.876Z,19.10
2024-03-11T01:22:48.950Z,19.87
2024-03-11T01:25:24.288Z,18.80
2024-03-11T01:27:59.095Z,18.17
2024-03-11T01:30:32.293Z,17.60
2024-03-11T01:33:06.561Z,16.93
2024-03-11T01:35:42.434Z,15.60
2024-03-11T01:38:15.623Z,17.50
2024-03-11T01:40:49.004Z,17.37
2024-03-11T01:43:29.080Z,19.30
2024-03-11T01:46:01.847Z,20.37
2024-03-11T01:48:34.600Z,16.87
2024-03-11T01:51:09.522Z,16.67
2024-03-11T01:53:42.400Z,19.17
2024-03-11T01:56:15.327Z,18.23
2024-03-11T01:58:52.235Z,15.63
2024-03-11T02:01:29.384Z,19.63
2024-03-11T02:04:02.249Z,18.57
2024-03-11T02:06:35.132Z,17.33
2024-03-11T02:09:11.179Z,16.80
2024-03-11T02:11:44.809Z,23.83
2024-03-11T02:14:22.211Z,15.93
2024-03-11T02:16:59.858Z,18.63
2024-03-11T02:19:32.790Z,18.57
2024-03-11T02:22:07.344Z,14.37
2024-03-11T02:24:46.185Z,17.17
2024-03-11T02:27:19.472Z,17.53
2024-03-11T02:29:52.164Z,18.40
2024-03-11T02:32:25.213Z,15.43
2024-03-11T02:34:58.141Z,16.97
2024-03-11T02:37:30.938Z,15.60
2024-03-11T02:40:08.253Z,16.07
2024-03-11T02:42:42.008Z,17.20
2024-03-11T02:45:15.670Z,16.30
2024-03-11T02:47:50.730Z,16.77
2024-03-11T02:50:23.763Z,13.90
2024-03-11T02:52:56.631Z,17.40
2024-03-11T02:55:30.666Z,16.80
2024-03-11T02:58:04.613Z,16.83
2024-03-11T03:00:37.536Z,17.87
2024-03-11T03:03:10.356Z,17.00
2024-03-11T03:05:43.248Z,16.67
2024-03-11T03:08:16.937Z,19.80
2024-03-11T03:10:51.039Z,17.50
2024-03-11T03:13:24.050Z,16.47
2024-03-11T03:15:56.768Z,15.57
2024-03-11T03:18:29.424Z,16.10
2024-03-11T03:21:02.083Z,18.07
2024-03-11T03:23:34.927Z,17.80
2024-03-11T03:26:09.769Z,20.00
2024-03-11T03:28:42.642Z,18.73
2024-03-11T03:31:15.741Z,22.03
2024-03-11T03:33:49.616Z,15.43
2024-03-11T03:36:22.866Z,20.57
2024-03-11T03:38:55.486Z,20.77
2024-03-11T03:41:29.520Z,18.27
2024-03-11T03:44:02.375Z,17.00
2024-03-11T03:46:35.117Z,16.83
2024-03-11T03:49:08.604Z,17.73
2024-03-11T03:51:41.469Z,17.97
2024-03-11T03:54:14.336Z,18.13
2024-03-11T03:56:48.587Z,15.93
2024-03-11T03:59:23.336Z,16.97
2024-03-11T04:01:56.248Z,16.00
2024-03-11T04:04:29.172Z,17.27
2024-03-11T04:07:01.935Z,16.77
2024-03-11T04:09:34.575Z,16.77
2024-03-11T04:12:09.138Z,17.87
2024-03-11T04:14:42.121Z,16.17
2024-03-11T04:17:15.861Z,16.17
2024-03-11T04:19:49.294Z,16.23
2024-03-11T04:22:21.986Z,16.73
2024-03-11T04:24:54.614Z,17.13
2024-03-11T04:27:28.614Z,15.53
2024-03-11T04:30:02.663Z,15.37
2024-03-11T04:32:36.541Z,15.13
2024-03-11T04:35:09.539Z,14.17
2024-03-11T04:37:42.398Z,16.37
2024-03-11T04:40:15.066Z,16.00
2024-03-11T04:42:49.632Z,14.93
2024-03-11T04:45:23.199Z,18.60
2024-03-11T04:48:01.650Z,14.47
2024-03-11T04:50:35.820Z,16.23
2024-03-11T04:53:09.492Z,17.00
2024-03-11T04:55:42.167Z,14.37
2024-03-11T04:58:19.176Z,18.20
2024-03-11T05:00:55.128Z,18.03
2024-03-11T05:03:27.814Z,17.47
2024-03-11T05:06:04.783Z,16.90
2024-03-11T05:08:37.654Z,14.37
2024-03-11T05:11:10.728Z,16.67
2024-03-11T05:13:50.791Z,12.90
2024-03-11T05:16:23.786Z,16.93
2024-03-11T05:18:56.690Z,15.43
2024-03-11T05:21:29.529Z,14.83
2024-03-11T05:24:04.010Z,14.23
2024-03-11T05:26:37.065Z,16.33
2024-03-11T05:29:14.293Z,15.47
2024-03-11T05:31:47.515Z,13.93
2024-03-11T05:34:21.255Z,16.37
2024-03-11T05:36:54.143Z,18.13
2024-03-11T05:39:26.945Z,17.17
2024-03-11T05:41:59.648Z,16.07
2024-03-11T05:44:35.359Z,16.43
2024-03-11T05:47:08.365Z,15.33
2024-03-11T05:49:42.463Z,14.53
2024-03-11T05:52:15.296Z,17.57
2024-03-11T05:54:51.833Z,16.30
2024-03-11T05:57:26.776Z,16.70
2024-03-11T06:00:01.350Z,17.93
2024-03-11T06:02:34.233Z,16.20
2024-03-11T06:05:07.817Z,15.83
2024-03-11T06:07:40.740Z,15.20
2024-03-11T06:10:13.724Z,15.77
2024-03-11T06:12:47.238Z,14.03
2024-03-11T06:15:23.209Z,20.83
2024-03-11T06:17:56.316Z,17.10
2024-03-11T06:20:29.237Z,16.20
2024-03-11T06:23:04.090Z,17.00
2024-03-11T06:25:36.769Z,22.27
2024-03-11T06:28:10.542Z,17.63
2024-03-11T06:30:48.316Z,18.33
2024-03-11T06:33:22.713Z,16.80
2024-03-11T06:35:56.905Z,15.80
2024-03-11T06:38:30.511Z,15.03
2024-03-11T06:41:03.471Z,17.33
2024-03-11T06:43:36.302Z,18.67
2024-03-11T06:46:11.872Z,18.57
2024-03-11T06:48:45.121Z,15.90
2024-03-11T06:51:18.257Z,15.60
2024-03-11T06:53:51.222Z,17.97
2024-03-11T06:56:25.944Z,17.30
2024-03-11T06:58:59.639Z,17.30
2024-03-11T07:01:34.630Z,16.13
2024-03-11T07:04:07.641Z,15.13
2024-03-11T07:06:40.962Z,14.87
2024-03-11T07:09:16.487Z,15.67
2024-03-11T07:11:50.042Z,15.00
2024-03-11T07:14:23.618Z,18.17
2024-03-11T07:16:59.971Z,13.20
2024-03-11T07:19:34.431Z,20.07
2024-03-11T07:22:08.300Z,15.43
2024-03-11T07:24:41.655Z,17.27
2024-03-11T07:27:17.600Z,14.50
2024-03-11T07:29:50.599Z,19.20
2024-03-11T07:32:24.863Z,15.97
2024-03-11T07:34:59.067Z,18.07
2024-03-11T07:37:37.541Z,18.07
2024-03-11T07:40:12.685Z,16.37
2024-03-11T07:42:45.828Z,18.53
2024-03-11T07:45:18.940Z,15.70
2024-03-11T07:47:56.632Z,16.00
2024-03-11T07:50:30.150Z,14.80
2024-03-11T07:53:06.404Z,13.90
2024-03-11T07:55:39.435Z,14.70
2024-03-11T07:58:12.675Z,16.63
2024-03-11T08:00:48.327Z,15.80
2024-03-11T08:03:25.554Z,16.93
2024-03-11T08:06:01.745Z,14.97
2024-03-11T08:08:35.702Z,15.83
2024-03-11T08:11:09.544Z,14.63
2024-03-11T08:13:42.783Z,17.03
2024-03-11T08:16:15.647Z,15.27
2024-03-11T08:18:49.883Z,15.77
2024-03-11T08:21:24.437Z,16.33
2024-03-11T08:23:58.437Z,15.50
2024-03-11T08:26:31.821Z,14.87
2024-03-11T08:29:04.980Z,16.57
2024-03-11T08:31:38.029Z,18.17
2024-03-11T08:34:12.676Z,17.43
2024-03-11T08:36:45.386Z,15.50
2024-03-11T08:39:18.109Z,16.77
2024-03-11T08:41:55.094Z,16.03
2024-03-11T08:44:31.177Z,16.83
2024-03-11T08:47:07.391Z,17.97
2024-03-11T08:49:45.600Z,16.33
2024-03-11T08:52:21.338Z,16.07
2024-03-11T08:55:00.600Z,14.90
2024-03-11T08:57:33.926Z,17.80
2024-03-11T09:00:10.580Z,17.03
2024-03-11T09:02:46.239Z,15.47
2024-03-11T09:05:22.755Z,16.60
2024-03-11T09:07:58.061Z,16.63
2024-03-11T09:10:32.808Z,18.43
2024-03-11T09:13:09.362Z,18.60
2024-03-11T09:15:46.312Z,19.60
2024-03-11T09:18:23.148Z,21.77
2024-03-11T09:20:57.286Z,18.67
2024-03-11T09:23:32.660Z,19.23
2024-03-11T09:26:11.440Z,18.87
2024-03-11T09:28:45.407Z,23.43
2024-03-11T09:31:18.613Z,22.53
2024-03-11T09:33:51.863Z,24.60
2024-03-11T09:36:26.623Z,24.63
2024-03-11T09:38:59.644Z,25.73
2024-03-11T09:41:38.600Z,23.37
2024-03-11T09:44:17.093Z,24.97
2024-03-11T09:46:51.990Z,25.27
2024-03-11T09:49:25.524Z,26.00
2024-03-11T09:52:02.468Z,27.57
2024-03-11T09:54:35.549Z,25.37
2024-03-11T09:57:11.552Z,27.10
2024-03-11T09:59:51.184Z,44.53
2024-03-11T10:02:28.006Z,29.43
2024-03-11T10:05:00.805Z,38.70
2024-03-11T10:07:37.960Z,27.20
2024-03-11T10:10:26.057Z,24.30
2024-03-11T10:13:02.795Z,24.83
2024-03-11T10:15:35.978Z,26.87
2024-03-11T10:18:27.890Z,24.30
2024-03-11T10:21:01.039Z,24.23
2024-03-11T10:23:37.689Z,23.77
2024-03-11T10:26:18.343Z,26.50
2024-03-11T10:28:51.533Z,27.67
2024-03-11T10:31:25.390Z,26.60
2024-03-11T10:34:11.543Z,27.97
2024-03-11T10:36:50.150Z,31.23
2024-03-11T10:39:32.904Z,29.40
2024-03-11T10:42:13.528Z,27.37
2024-03-11T10:44:47.429Z,24.13
2024-03-11T10:47:23.555Z,23.20
2024-03-11T10:49:56.425Z,23.37
2024-03-11T10:52:32.007Z,21.57
2024-03-11T10:55:13.745Z,22.50
2024-03-11T10:57:51.697Z,21.30
2024-03-11T11:00:25.617Z,23.63
2024-03-11T11:03:08.984Z,24.17
2024-03-11T11:05:48.838Z,21.40
2024-03-11T11:08:31.618Z,22.00
2024-03-11T11:14:34.854Z,29.57
2024-03-11T11:17:10.633Z,25.37
2024-03-11T11:19:53.824Z,22.33
2024-03-11T11:22:28.512Z,22.27
2024-03-11T11:25:01.807Z,22.93
2024-03-11T11:27:38.923Z,28.37
2024-03-11T11:37:20.868Z,21.97
2024-03-11T11:39:55.318Z,21.50
2024-03-11T11:42:34.833Z,22.07
2024-03-11T11:45:12.828Z,21.53
2024-03-11T11:47:46.971Z,22.23
2024-03-11T11:50:39.631Z,20.77
2024-03-11T11:53:13.298Z,20.50
2024-03-11T11:55:51.648Z,20.17
2024-03-11T11:58:24.615Z,22.93
2024-03-11T12:01:02.899Z,20.77
2024-03-11T12:03:37.501Z,20.97
2024-03-11T12:06:19.611Z,18.47
2024-03-11T12:08:55.056Z,22.70
2024-03-11T12:11:28.278Z,23.07
2024-03-11T12:14:01.588Z,22.63
2024-03-11T12:16:47.337Z,24.67
2024-03-11T12:19:21.811Z,18.57
2024-03-11T12:21:55.097Z,21.50
2024-03-11T12:24:28.230Z,18.67
2024-03-11T12:27:00.992Z,18.50
2024-03-11T12:29:33.726Z,15.97
2024-03-11T12:32:12.522Z,17.87
2024-03-11T12:34:45.557Z,16.93
2024-03-11T12:37:19.082Z,13.87
2024-03-11T12:39:54.567Z,15.57
2024-03-11T12:42:30.894Z,13.70
2024-03-11T12:45:04.931Z,13.93
2024-03-11T12:47:38.989Z,14.00
2024-03-11T12:50:13.165Z,17.13
2024-03-11T12:52:47.210Z,16.90
2024-03-11T12:55:24.675Z,14.57
2024-03-11T12:58:03.887Z,14.03
2024-03-11T13:00:36.604Z,14.83
2024-03-11T13:03:13.216Z,15.03
2024-03-11T13:05:56.414Z,15.17
2024-03-11T13:08:31.090Z,13.30
2024-03-11T13:11:06.079Z,14.53
2024-03-11T13:13:39.184Z,13.80
2024-03-11T13:16:17.875Z,13.37
2024-03-11T13:18:56.445Z,12.63
2024-03-11T13:21:31.147Z,14.50
2024-03-11T13:24:04.405Z,10.87
2024-03-11T13:26:39.568Z,12.73
2024-03-11T13:29:13.364Z,11.27
2024-03-11T13:31:46.177Z,12.83
2024-03-11T13:34:23.031Z,11.30
2024-03-11T13:36:55.814Z,13.63
2024-03-11T13:39:38.148Z,10.67
2024-03-11T13:42:13.936Z,10.67
2024-03-11T13:44:49.232Z,12.10
2024-03-11T13:47:22.091Z,10.30
2024-03-11T13:49:59.092Z,9.50
2024-03-11T13:52:32.045Z,9.00
2024-03-11T13:55:05.462Z,8.63
2024-03-11T13:57:38.243Z,11.83
2024-03-11T14:00:18.816Z,14.97
2024-03-11T14:02:52.466Z,7.80
2024-03-11T14:05:27.940Z,7.57
2024-03-11T14:08:00.672Z,8.07
2024-03-11T14:10:33.532Z,6.23
2024-03-11T14:13:06.533Z,6.40
2024-03-11T14:15:39.307Z,5.73
2024-03-11T14:18:12.569Z,5.90
2024-03-11T14:20:49.260Z,4.83
2024-03-11T14:23:22.994Z,6.67
2024-03-11T14:25:55.901Z,5.97
2024-03-11T14:28:29.420Z,5.90
2024-03-11T14:31:04.108Z,5.67
2024-03-11T14:33:37.558Z,6.90
2024-03-11T14:36:12.040Z,4.57
2024-03-11T14:38:44.723Z,3.77
2024-03-11T14:41:17.323Z,3.43
2024-03-11T14:43:51.737Z,4.30
2024-03-11T14:46:26.520Z,3.17
2024-03-11T14:49:00.204Z,2.90
2024-03-11T14:51:36.164Z,3.10
2024-03-11T14:54:16.503Z,4.10
2024-03-11T14:56:49.948Z,3.70
2024-03-11T14:59:23.923Z,3.30
2024-03-11T15:01:57.361Z,3.93
2024-03-11T15:04:32.364Z,5.03
2024-03-11T15:07:07.524Z,7.47
2024-03-11T15:09:43.452Z,4.63
2024-03-11T15:12:16.787Z,2.57
2024-03-11T15:14:49.566Z,3.10
2024-03-11T15:17:24.404Z,2.77
2024-03-11T15:19:57.998Z,3.43
2024-03-11T15:22:33.036Z,2.43
2024-03-11T15:25:07.610Z,2.60
2024-03-11T15:27:46.724Z,3.30
2024-03-11T15:30:22.118Z,3.03
2024-03-11T15:32:54.871Z,2.70
2024-03-11T15:35:28.148Z,2.87
2024-03-11T15:38:02.266Z,2.70
2024-03-11T15:40:35.795Z,4.17
2024-03-11T15:43:08.594Z,2.40
2024-03-11T15:45:41.342Z,3.50
2024-03-11T15:48:19.475Z,3.60
2024-03-11T15:50:54.998Z,2.90
2024-03-11T15:53:32.097Z,4.77
2024-03-11T15:56:05.107Z,2.60
2024-03-11T15:58:38.285Z,2.60
2024-03-11T16:01:15.316Z,2.70
2024-03-11T16:03:49.141Z,3.57
2024-03-11T16:06:22.556Z,3.63
2024-03-11T16:08:58.510Z,3.43
2024-03-11T16:11:31.298Z,2.47
2024-03-11T16:14:03.496Z,6.13
2024-03-11T16:16:36.221Z,3.07
2024-03-11T16:19:08.038Z,3.80
2024-03-11T16:21:42.389Z,4.07
2024-03-11T16:24:16.255Z,2.60
2024-03-11T16:26:52.051Z,2.93
2024-03-11T16:29:24.324Z,4.40
2024-03-11T16:31:57.194Z,4.17
2024-03-11T16:34:31.594Z,5.17
2024-03-11T16:37:08.440Z,3.47
2024-03-11T16:39:46.138Z,4.00
2024-03-11T16:42:20.824Z,4.17
2024-03-11T16:44:52.893Z,4.50
2024-03-11T16:47:30.086Z,4.07
2024-03-11T16:50:02.222Z,7.07
2024-03-11T16:52:40.504Z,10.53
2024-03-11T16:55:15.217Z,9.20
2024-03-11T16:57:47.979Z,6.70
2024-03-11T17:00:21.853Z,4.60
2024-03-11T17:02:55.051Z,12.47
2024-03-11T17:05:28.660Z,5.97
2024-03-11T17:08:03.644Z,9.70
2024-03-11T17:10:40.463Z,13.40
2024-03-11T17:13:15.810Z,24.83
2024-03-11T17:15:50.536Z,20.37
2024-03-11T17:18:23.313Z,15.17
2024-03-11T17:20:56.768Z,4.57
2024-03-11T17:23:31.007Z,4.10
2024-03-11T17:26:09.522Z,5.53
2024-03-11T17:28:41.504Z,4.20
2024-03-11T17:31:14.443Z,5.07
2024-03-11T17:33:48.713Z,7.23
2024-03-11T17:36:22.498Z,6.70
2024-03-11T17:38:57.280Z,7.17
2024-03-11T17:41:30.373Z,13.03
2024-03-11T17:44:04.144Z,9.30
2024-03-11T17:46:36.392Z,7.47
2024-03-11T17:49:12.271Z,6.87
2024-03-11T17:51:43.978Z,8.17
2024-03-11T17:54:18.139Z,7.27
2024-03-11T17:56:51.176Z,9.80
2024-03-11T17:59:24.319Z,12.77
2024-03-11T18:01:56.009Z,11.57
2024-03-11T18:04:28.706Z,10.20
2024-03-11T18:07:00.447Z,9.07
2024-03-11T18:09:33.820Z,12.57
2024-03-11T18:12:08.069Z,11.83
2024-03-11T18:14:39.807Z,10.37
2024-03-11T18:17:14.477Z,10.13
2024-03-11T18:19:46.882Z,9.27
2024-03-11T18:22:20.078Z,8.13
2024-03-11T18:24:51.886Z,11.47
2024-03-11T18:27:25.887Z,15.13
2024-03-11T18:29:57.737Z,9.57
2024-03-11T18:32:30.413Z,9.80
2024-03-11T18:35:03.220Z,10.57
2024-03-11T18:37:36.293Z,10.20
2024-03-11T18:40:10.406Z,9.93
2024-03-11T18:42:46.271Z,10.43
2024-03-11T18:45:19.356Z,8.37
2024-03-11T18:47:52.351Z,11.07
2024-03-11T18:50:25.782Z,27.50
2024-03-11T18:53:01.932Z,38.67
2024-03-11T18:55:37.047Z,44.27
2024-03-11T18:58:12.067Z,72.13
2024-03-11T19:00:45.471Z,37.53
2024-03-11T19:03:18.363Z,30.57
2024-03-11T19:05:51.831Z,27.77
2024-03-11T19:08:24.447Z,26.83
2024-03-11T19:10:57.644Z,23.67
2024-03-11T19:13:32.155Z,24.23
2024-03-11T19:16:06.772Z,20.17
2024-03-11T19:18:40.034Z,23.30
2024-03-11T19:21:15.588Z,22.47
2024-03-11T19:23:49.608Z,21.37
2024-03-11T19:26:23.705Z,21.40
2024-03-11T19:28:58.673Z,27.07
2024-03-11T19:31:34.490Z,36.80
2024-03-11T19:34:08.850Z,60.23
2024-03-11T19:36:47.813Z,20.27
2024-03-11T19:39:26.462Z,37.37
2024-03-11T19:42:05.701Z,40.37
2024-03-11T19:44:45.557Z,57.30
2024-03-11T19:47:42.695Z,19.17
2024-03-11T19:50:34.333Z,18.23
2024-03-11T19:53:28.068Z,25.00
2024-03-11T19:56:31.277Z,18.30
2024-03-11T19:59:31.419Z,23.23
2024-03-11T20:02:22.889Z,31.03
2024-03-11T20:05:13.633Z,23.93
2024-03-11T20:08:03.668Z,17.87
2024-03-11T20:11:13.163Z,18.10
2024-03-11T20:13:58.216Z,21.17
2024-03-11T20:16:49.135Z,18.17
2024-03-11T20:19:41.922Z,16.50
2024-03-11T20:22:44.066Z,16.87
2024-03-11T20:25:34.483Z,19.20
2024-03-11T20:28:11.951Z,19.43
2024-03-11T20:30:52.726Z,17.90
2024-03-11T20:33:27.081Z,26.30
2024-03-11T20:36:01.551Z,17.63
2024-03-11T20:38:34.773Z,16.30
2024-03-11T20:41:08.574Z,17.53
2024-03-11T20:43:41.977Z,21.13
2024-03-11T20:46:15.541Z,18.33
2024-03-11T20:48:48.278Z,22.70
2024-03-11T20:51:25.378Z,19.33
2024-03-11T20:53:58.220Z,20.07
2024-03-11T20:56:30.812Z,16.53
2024-03-11T20:59:03.729Z,26.03
2024-03-11T21:01:37.001Z,19.03
2024-03-11T21:04:15.498Z,18.30
2024-03-11T21:06:49.639Z,21.17
2024-03-11T21:09:23.691Z,19.93
2024-03-11T21:11:57.106Z,20.67
2024-03-11T21:14:30.106Z,17.40
2024-03-11T21:17:07.346Z,16.87
2024-03-11T21:19:49.919Z,17.00
2024-03-11T21:22:31.052Z,17.17
2024-03-11T21:25:18.952Z,22.97
2024-03-11T21:27:51.738Z,21.23
2024-03-11T21:30:25.178Z,32.47
2024-03-11T21:32:58.083Z,17.13
2024-03-11T21:35:33.845Z,16.53
2024-03-11T21:38:13.792Z,19.57
2024-03-11T21:40:54.958Z,15.33
2024-03-11T21:43:27.909Z,15.70
2024-03-11T21:46:00.744Z,15.83
2024-03-11T21:48:33.404Z,21.20
2024-03-11T21:51:06.238Z,16.37
2024-03-11T21:53:40.320Z,18.40
2024-03-11T21:56:12.922Z,16.57
2024-03-11T21:58:45.743Z,17.50
2024-03-11T22:01:18.506Z,14.93
2024-03-11T22:03:51.236Z,16.30
2024-03-11T22:06:24.084Z,17.17
2024-03-11T22:09:00.654Z,17.37
2024-03-11T22:11:33.419Z,18.57
2024-03-11T22:14:08.207Z,17.93
2024-03-11T22:16:41.025Z,19.17
2024-03-11T22:19:13.823Z,16.37
2024-03-11T22:21:48.066Z,16.83
2024-03-11T22:24:22.840Z,13.97
2024-03-11T22:26:55.539Z,18.73
2024-03-11T22:29:29.664Z,17.03
2024-03-11T22:32:02.368Z,14.53
2024-03-11T22:34:34.987Z,18.37
2024-03-11T22:37:07.781Z,17.10
2024-03-11T22:39:42.072Z,18.13
2024-03-11T22:42:15.615Z,20.80
2024-03-11T22:44:49.895Z,17.80
2024-03-11T22:47:22.762Z,18.20
2024-03-11T22:49:55.701Z,16.57
2024-03-11T22:52:28.346Z,18.37
2024-03-11T22:55:02.861Z,15.37
2024-03-11T22:57:36.072Z,18.73
2024-03-11T23:00:39.024Z,17.70
2024-03-11T23:03:12.540Z,16.67
2024-03-11T23:05:45.158Z,15.40
2024-03-11T23:08:22.098Z,20.10
2024-03-11T23:10:56.826Z,16.57
2024-03-11T23:13:29.634Z,17.60
2024-03-11T23:16:02.342Z,17.53
2024-03-11T23:18:34.958Z,19.17
2024-03-11T23:21:07.629Z,17.23
2024-03-11T23:23:41.344Z,19.60
2024-03-11T23:26:18.132Z,18.37
2024-03-11T23:28:51.191Z,18.97
2024-03-11T23:31:25.423Z,15.23
2024-03-11T23:33:59.054Z,13.30
2024-03-11T23:36:31.854Z,20.33
2024-03-11T23:39:04.971Z,20.10
2024-03-11T23:41:38.976Z,16.77
2024-03-11T23:44:12.941Z,20.00
2024-03-11T23:46:47.421Z,16.03
2024-03-11T23:49:20.553Z,14.03
2024-03-11T23:51:53.607Z,19.67
2024-03-11T23:54:26.698Z,18.23
2024-03-11T23:57:01.410Z,16.57
2024-03-11T23:59:34.915Z,22.73
